Time;durP1;ratioP1;P1;durP2;ratioP2;P2;SDS_P1;SDS_P2;PMS_P1;PMS_P2;Temp;Humidity;BMP_temperature;BMP_pressure;BME280_temperature;BME280_humidity;BME280_pressure;Samples;Min_cycle;Max_cycle;Signal;HPM_P1;HPM_P2
2023/06/12 00:02:20;;;;;;;4.32;1.92;;;25.80;50.50;;;;;;7401893;19;19939;-58
2023/06/12 00:04:49;;;;;;;4.05;1.20;;;25.80;50.50;;;;;;7400107;19;19918;-58
2023/06/12 00:07:21;;;;;;;4.55;2.22;;;25.70;50.40;;;;;;7400422;19;19923;-58
2023/06/12 00:09:50;;;;;;;3.30;1.55;;;25.70;50.40;;;;;;7402937;19;19950;-58
2023/06/12 00:12:19;;;;;;;3.25;1.35;;;25.70;50.40;;;;;;7403118;19;19974;-58
2023/06/12 00:14:48;;;;;;;4.72;1.13;;;25.70;50.50;;;;;;7403573;19;19982;-58
2023/06/12 00:17:17;;;;;;;3.83;1.23;;;25.70;50.60;;;;;;7403085;19;20325;-58
2023/06/12 00:19:46;;;;;;;2.65;1.08;;;25.70;50.60;;;;;;7400431;19;19974;-58
2023/06/12 00:22:16;;;;;;;4.45;1.73;;;25.70;50.60;;;;;;7401680;19;19960;-58
2023/06/12 00:24:47;;;;;;;5.90;1.13;;;25.70;50.70;;;;;;7402714;19;19919;-58
2023/06/12 00:27:16;;;;;;;5.45;1.45;;;25.70;50.70;;;;;;7401570;19;19923;-58
2023/06/12 00:29:45;;;;;;;5.07;1.48;;;25.70;50.80;;;;;;7402850;19;20285;-58
2023/06/12 00:32:15;;;;;;;3.47;1.20;;;25.70;50.80;;;;;;7401053;19;19927;-58
2023/06/12 00:34:44;;;;;;;3.30;1.35;;;25.70;50.80;;;;;;7402176;19;19930;-57
2023/06/12 00:37:14;;;;;;;3.08;1.23;;;25.70;50.80;;;;;;7400332;19;19994;-58
2023/06/12 00:39:43;;;;;;;5.50;1.92;;;25.60;50.80;;;;;;7401201;19;19922;-59
2023/06/12 00:42:14;;;;;;;4.68;1.25;;;25.60;50.80;;;;;;7403278;19;19947;-58
2023/06/12 00:44:43;;;;;;;2.95;1.10;;;25.60;50.90;;;;;;7402768;19;20294;-58
2023/06/12 00:47:13;;;;;;;3.42;1.30;;;25.50;50.90;;;;;;7403004;19;19927;-58
2023/06/12 00:49:42;;;;;;;4.20;1.83;;;25.60;51.00;;;;;;7403302;19;19922;-58
2023/06/12 00:52:13;;;;;;;3.65;1.20;;;25.50;51.00;;;;;;7402989;19;19922;-58
2023/06/12 00:54:43;;;;;;;2.80;1.45;;;25.50;51.00;;;;;;7401507;19;19958;-57
2023/06/12 00:57:15;;;;;;;3.83;1.55;;;25.50;51.10;;;;;;7400196;19;19922;-58
2023/06/12 00:59:44;;;;;;;3.13;1.23;;;25.50;51.20;;;;;;7401204;19;19926;-58
2023/06/12 01:02:13;;;;;;;3.67;1.25;;;25.50;51.30;;;;;;7402909;19;19991;-58
2023/06/12 01:04:43;;;;;;;3.95;1.10;;;25.50;51.20;;;;;;7399415;19;23998;-57
2023/06/12 01:07:20;;;;;;;4.57;1.85;;;25.50;51.30;;;;;;7400913;19;19923;-58
2023/06/12 01:09:56;;;;;;;2.97;1.35;;;25.50;51.40;;;;;;7400220;19;19915;-58
2023/06/12 01:12:28;;;;;;;3.53;1.50;;;25.50;51.40;;;;;;7401060;19;19943;-58
2023/06/12 01:14:57;;;;;;;2.72;1.27;;;25.40;51.40;;;;;;7398630;19;20357;-58
2023/06/12 01:17:27;;;;;;;3.92;1.85;;;25.40;51.50;;;;;;7402493;19;19931;-58
2023/06/12 01:20:03;;;;;;;4.85;1.70;;;25.30;51.40;;;;;;7400201;19;19923;-58
2023/06/12 01:22:36;;;;;;;4.00;1.75;;;25.40;51.60;;;;;;7402702;19;21067;-58
2023/06/12 01:25:22;;;;;;;3.85;1.48;;;25.40;51.70;;;;;;7402369;19;19930;-58
2023/06/12 01:28:03;;;;;;;3.10;1.55;;;25.30;51.70;;;;;;7400991;19;20348;-57
2023/06/12 01:30:54;;;;;;;3.85;1.90;;;25.30;51.70;;;;;;7398744;19;20068;-57
2023/06/12 01:33:32;;;;;;;3.78;1.92;;;25.30;51.80;;;;;;7399100;19;19993;-58
2023/06/12 01:36:03;;;;;;;4.35;1.92;;;25.30;51.90;;;;;;7400102;19;19943;-58
2023/06/12 01:38:35;;;;;;;4.90;1.42;;;25.30;51.90;;;;;;7401667;19;19919;-57
2023/06/12 01:41:07;;;;;;;2.97;1.77;;;25.20;52.00;;;;;;7402299;19;19927;-58
2023/06/12 01:43:38;;;;;;;4.85;1.35;;;25.20;52.00;;;;;;7400562;19;19941;-58
2023/06/12 01:46:08;;;;;;;4.63;1.83;;;25.20;52.00;;;;;;7400924;19;19918;-57
2023/06/12 01:48:41;;;;;;;4.38;1.73;;;25.20;52.10;;;;;;7398901;19;19951;-58
2023/06/12 01:51:09;;;;;;;2.95;1.65;;;25.10;52.00;;;;;;7399331;19;19994;-58
2023/06/12 01:53:39;;;;;;;4.82;2.03;;;25.10;52.10;;;;;;7399511;19;19996;-57
2023/06/12 01:56:08;;;;;;;3.35;1.85;;;25.10;52.20;;;;;;7401091;19;19934;-57
2023/06/12 01:58:38;;;;;;;3.63;1.35;;;25.10;52.20;;;;;;7400808;19;19919;-58
2023/06/12 02:01:08;;;;;;;2.63;1.20;;;25.10;52.20;;;;;;7400399;19;20328;-58
2023/06/12 02:03:40;;;;;;;3.38;1.30;;;25.00;52.30;;;;;;7398737;19;20372;-58
2023/06/12 02:06:09;;;;;;;6.32;2.15;;;25.00;52.30;;;;;;7399677;19;19922;-58
2023/06/12 02:08:38;;;;;;;5.43;1.90;;;25.00;52.40;;;;;;7400540;19;19915;-57
2023/06/12 02:11:06;;;;;;;5.03;1.67;;;24.90;52.40;;;;;;7399486;19;19925;-58
2023/06/12 02:13:35;;;;;;;3.25;1.85;;;24.90;52.50;;;;;;7399055;19;19997;-58
2023/06/12 02:16:05;;;;;;;7.05;1.75;;;24.90;52.60;;;;;;7405852;19;19930;-59
2023/06/12 02:18:34;;;;;;;4.35;1.23;;;24.90;52.70;;;;;;7406422;19;19929;-58
2023/06/12 02:21:06;;;;;;;3.78;1.73;;;24.90;52.70;;;;;;7407114;19;20358;-59
2023/06/12 02:23:35;;;;;;;3.63;1.60;;;24.80;52.70;;;;;;7404606;19;19934;-58
2023/06/12 02:26:04;;;;;;;4.18;1.23;;;24.80;52.70;;;;;;7407795;19;19927;-58
2023/06/12 02:28:33;;;;;;;4.60;1.92;;;24.80;52.80;;;;;;7406328;19;19922;-58
2023/06/12 02:31:03;;;;;;;3.95;1.73;;;24.80;52.90;;;;;;7406629;19;19947;-58
2023/06/12 02:33:33;;;;;;;4.90;1.40;;;24.80;53.00;;;;;;7406122;19;20387;-59
2023/06/12 02:36:02;;;;;;;3.90;1.85;;;24.70;53.00;;;;;;7406183;19;20275;-59
2023/06/12 02:38:33;;;;;;;5.13;1.50;;;24.70;53.10;;;;;;7406288;19;19922;-58
2023/06/12 02:41:02;;;;;;;4.70;1.58;;;24.70;53.10;;;;;;7405975;19;19923;-58
2023/06/12 02:43:31;;;;;;;4.32;1.27;;;24.70;53.10;;;;;;7404335;19;19979;-59
2023/06/12 02:46:00;;;;;;;5.53;1.42;;;24.70;53.30;;;;;;7405664;19;20341;-59
2023/06/12 02:48:29;;;;;;;4.65;1.92;;;24.60;53.30;;;;;;7403442;19;19922;-59
2023/06/12 02:50:58;;;;;;;3.55;1.67;;;24.60;53.30;;;;;;7405966;19;20399;-58
2023/06/12 02:53:27;;;;;;;3.25;1.58;;;24.60;53.30;;;;;;7406645;19;19923;-58
2023/06/12 02:55:59;;;;;;;4.18;1.48;;;24.60;53.40;;;;;;7405852;19;19918;-58
2023/06/12 02:58:32;;;;;;;4.43;1.42;;;24.50;53.40;;;;;;7400731;19;20289;-59
2023/06/12 03:01:02;;;;;;;4.90;1.45;;;24.50;53.40;;;;;;7397674;19;20570;-59
2023/06/12 03:03:31;;;;;;;4.80;1.75;;;24.50;53.50;;;;;;7407499;19;19951;-58
2023/06/12 03:06:00;;;;;;;3.80;1.45;;;24.50;53.70;;;;;;7406272;19;19926;-58
2023/06/12 03:08:30;;;;;;;3.75;1.77;;;24.50;53.60;;;;;;7404386;19;20367;-58
2023/06/12 03:11:02;;;;;;;4.55;1.73;;;24.50;53.70;;;;;;7404379;19;19922;-59
2023/06/12 03:13:31;;;;;;;3.90;1.63;;;24.40;53.70;;;;;;7405698;19;19935;-58
2023/06/12 03:16:00;;;;;;;3.97;1.50;;;24.40;53.80;;;;;;7406046;19;19929;-58
2023/06/12 03:18:29;;;;;;;4.50;2.08;;;24.40;53.80;;;;;;7406292;19;19919;-58
2023/06/12 03:20:58;;;;;;;3.83;1.75;;;24.40;53.90;;;;;;7404972;19;20297;-58
2023/06/12 03:23:27;;;;;;;3.72;1.60;;;24.40;54.00;;;;;;7406600;19;19935;-58
2023/06/12 03:25:56;;;;;;;3.63;1.50;;;24.30;53.90;;;;;;7403163;19;19921;-58
2023/06/12 03:28:28;;;;;;;6.35;1.73;;;24.30;54.00;;;;;;7402536;19;19994;-60
2023/06/12 03:30:57;;;;;;;3.78;1.88;;;24.30;54.10;;;;;;7401449;19;19986;-59
2023/06/12 03:33:26;;;;;;;4.50;1.45;;;24.30;54.10;;;;;;7405714;19;19922;-59
2023/06/12 03:35:56;;;;;;;4.57;1.67;;;24.20;54.20;;;;;;7403748;19;19923;-58
2023/06/12 03:38:26;;;;;;;3.90;1.55;;;24.20;54.30;;;;;;7400896;19;19931;-59
2023/06/12 03:40:55;;;;;;;3.65;1.42;;;24.20;54.30;;;;;;7403035;19;19957;-59
2023/06/12 03:43:24;;;;;;;4.15;1.67;;;24.20;54.40;;;;;;7403953;19;19922;-61
2023/06/12 03:45:55;;;;;;;3.75;1.45;;;24.20;54.50;;;;;;7404263;19;19935;-59
2023/06/12 03:48:25;;;;;;;4.85;1.52;;;24.20;54.50;;;;;;7405421;19;19974;-58
2023/06/12 03:50:54;;;;;;;;;;;24.20;54.60;;;;;;7402748;19;19927;-58
2023/06/12 03:53:23;;;;;;;8.20;1.58;;;24.10;54.60;;;;;;7404151;19;19986;-58
2023/06/12 03:55:52;;;;;;;2.92;1.35;;;24.10;54.70;;;;;;7403712;19;19974;-58
2023/06/12 03:58:21;;;;;;;3.63;1.52;;;24.10;54.70;;;;;;7403996;19;20019;-60
2023/06/12 04:00:50;;;;;;;4.07;1.50;;;24.00;54.80;;;;;;7404856;19;19974;-58
2023/06/12 04:03:24;;;;;;;3.65;1.80;;;24.00;54.90;;;;;;7403436;19;19986;-58
2023/06/12 04:05:53;;;;;;;4.35;1.73;;;24.00;54.90;;;;;;7403504;19;20053;-58
2023/06/12 04:08:22;;;;;;;4.72;1.75;;;24.00;54.90;;;;;;7402893;19;19950;-59
2023/06/12 04:10:51;;;;;;;3.03;1.50;;;24.00;55.00;;;;;;7401785;19;19936;-59
2023/06/12 04:13:20;;;;;;;2.85;1.15;;;24.00;55.10;;;;;;7404458;19;19986;-58
2023/06/12 04:15:50;;;;;;;6.20;1.92;;;24.00;55.20;;;;;;7404967;19;19926;-58
2023/06/12 04:18:19;;;;;;;7.57;2.25;;;24.00;55.30;;;;;;7404076;19;19936;-61
2023/06/12 04:20:50;;;;;;;3.83;1.63;;;24.00;55.40;;;;;;7400748;19;20348;-58
2023/06/12 04:23:20;;;;;;;4.82;1.55;;;24.00;55.40;;;;;;7403520;19;19926;-58
2023/06/12 04:25:50;;;;;;;4.97;1.70;;;24.00;55.50;;;;;;7400415;19;19930;-58
2023/06/12 04:28:21;;;;;;;3.67;1.40;;;23.90;55.50;;;;;;7403360;19;19923;-58
2023/06/12 04:30:51;;;;;;;3.70;1.90;;;23.90;55.60;;;;;;7400554;19;19926;-58
2023/06/12 04:33:20;;;;;;;6.88;2.75;;;23.90;55.60;;;;;;7399099;19;19934;-58
2023/06/12 04:35:55;;;;;;;;;;;23.90;55.90;;;;;;7400607;19;20240;-58
2023/06/12 04:38:27;;;;;;;4.97;1.88;;;23.90;56.00;;;;;;7401360;19;19915;-58
2023/06/12 04:40:58;;;;;;;6.15;2.22;;;23.80;56.20;;;;;;7402927;19;19918;-58
2023/06/12 04:43:27;;;;;;;6.53;1.90;;;23.80;56.30;;;;;;7403853;19;20272;-58
2023/06/12 04:45:57;;;;;;;7.72;2.33;;;23.70;56.50;;;;;;7403959;19;19923;-58
2023/06/12 04:48:33;;;;;;;4.63;1.80;;;23.70;56.70;;;;;;7403160;19;19939;-58
2023/06/12 04:51:05;;;;;;;4.13;1.67;;;23.60;56.80;;;;;;7402910;19;19926;-58
2023/06/12 04:53:39;;;;;;;5.07;1.55;;;23.60;57.20;;;;;;7404115;19;19918;-58
2023/06/12 04:56:09;;;;;;;6.13;1.98;;;23.60;57.40;;;;;;7401267;19;19978;-58
2023/06/12 04:58:40;;;;;;;3.63;2.17;;;23.50;57.60;;;;;;7403550;19;19929;-59
2023/06/12 05:01:10;;;;;;;6.30;2.13;;;23.50;57.70;;;;;;7403254;19;19982;-58
2023/06/12 05:03:40;;;;;;;4.85;2.40;;;23.50;57.90;;;;;;7403904;19;19956;-58
2023/06/12 05:06:12;;;;;;;4.22;1.80;;;23.40;58.20;;;;;;7403945;19;19935;-58
2023/06/12 05:08:41;;;;;;;4.43;1.55;;;23.50;58.20;;;;;;7402569;19;19926;-58
2023/06/12 05:11:10;;;;;;;5.95;2.10;;;23.40;58.60;;;;;;7403180;19;19926;-58
2023/06/12 05:13:39;;;;;;;7.15;2.00;;;23.40;58.80;;;;;;7403255;19;19926;-58
2023/06/12 05:16:08;;;;;;;6.28;2.17;;;23.40;59.10;;;;;;7400326;19;20463;-58
2023/06/12 05:18:37;;;;;;;6.15;2.30;;;23.40;59.20;;;;;;7401894;19;19923;-58
2023/06/12 05:21:06;;;;;;;4.13;1.77;;;23.40;59.30;;;;;;7403079;19;19923;-58
2023/06/12 05:23:38;;;;;;;7.43;2.05;;;23.30;59.30;;;;;;7402813;19;19929;-58
2023/06/12 05:26:07;;;;;;;6.03;1.92;;;23.30;59.70;;;;;;7402273;19;20503;-58
2023/06/12 05:28:36;;;;;;;6.38;1.90;;;23.30;59.80;;;;;;7400954;19;20304;-57
2023/06/12 05:31:05;;;;;;;5.00;2.10;;;23.30;59.80;;;;;;7402052;19;20010;-58
2023/06/12 05:33:35;;;;;;;5.32;2.03;;;23.30;60.00;;;;;;7401937;19;19993;-57
2023/06/12 05:36:04;;;;;;;6.18;2.30;;;23.20;60.30;;;;;;7400282;19;19939;-58
2023/06/12 05:38:34;;;;;;;5.30;2.42;;;23.30;60.30;;;;;;7401841;19;19946;-58
2023/06/12 05:41:05;;;;;;;8.23;2.10;;;23.20;60.40;;;;;;7403222;19;19918;-58
2023/06/12 05:43:34;;;;;;;5.32;1.95;;;23.20;60.50;;;;;;7400702;19;19919;-58
2023/06/12 05:46:03;;;;;;;4.85;2.25;;;23.20;60.60;;;;;;7402488;19;19919;-58
2023/06/12 05:48:32;;;;;;;8.43;2.13;;;23.20;60.70;;;;;;7402308;19;20354;-59
2023/06/12 05:51:01;;;;;;;6.90;2.30;;;23.20;60.80;;;;;;7401092;19;19922;-60
2023/06/12 05:53:30;;;;;;;6.10;1.80;;;23.30;60.60;;;;;;7401207;19;19922;-60
2023/06/12 05:55:59;;;;;;;5.95;2.30;;;23.30;60.60;;;;;;7402368;19;20355;-58
2023/06/12 05:58:31;;;;;;;3.60;1.73;;;23.30;60.50;;;;;;7402869;19;19979;-59
2023/06/12 06:01:00;;;;;;;5.18;1.85;;;23.40;60.50;;;;;;7401357;19;19918;-59
2023/06/12 06:03:32;;;;;;;;;;;23.50;60.50;;;;;;7405037;19;19932;-61
2023/06/12 06:06:01;;;;;;;4.80;1.75;;;23.50;60.30;;;;;;7402711;19;19926;-60
2023/06/12 06:08:30;;;;;;;5.30;1.95;;;23.50;60.40;;;;;;7401208;19;19918;-60
2023/06/12 06:11:00;;;;;;;4.78;2.55;;;23.60;60.40;;;;;;7397891;19;19931;-60
2023/06/12 06:13:31;;;;;;;6.13;1.80;;;23.60;60.70;;;;;;7401330;19;19919;-60
2023/06/12 06:16:02;;;;;;;4.50;2.05;;;23.60;60.60;;;;;;7401489;19;19922;-60
2023/06/12 06:18:31;;;;;;;4.93;2.03;;;23.70;60.60;;;;;;7400964;19;19919;-60
2023/06/12 06:21:00;;;;;;;7.15;2.38;;;23.70;60.50;;;;;;7401789;19;19939;-60
2023/06/12 06:23:30;;;;;;;5.15;2.47;;;23.70;60.50;;;;;;7400124;19;19938;-60
2023/06/12 06:25:59;;;;;;;5.35;2.25;;;23.80;60.70;;;;;;7394915;19;19918;-61
2023/06/12 06:28:31;;;;;;;5.65;1.85;;;23.80;60.70;;;;;;7395908;19;19930;-60
2023/06/12 06:31:00;;;;;;;5.13;1.88;;;23.80;60.70;;;;;;7396498;19;19939;-60
2023/06/12 06:33:29;;;;;;;6.88;1.88;;;23.80;60.70;;;;;;7395095;19;21665;-59
2023/06/12 06:35:58;;;;;;;4.70;1.90;;;23.90;60.70;;;;;;7398559;19;19919;-60
2023/06/12 06:38:27;;;;;;;7.05;2.28;;;23.90;60.90;;;;;;7397193;19;19918;-60
2023/06/12 06:40:57;;;;;;;6.60;2.08;;;23.90;60.80;;;;;;7398360;19;19926;-60
2023/06/12 06:43:26;;;;;;;4.47;1.98;;;23.90;60.90;;;;;;7398848;19;19922;-60
2023/06/12 06:45:58;;;;;;;6.60;2.05;;;23.90;61.00;;;;;;7397949;19;19919;-62
2023/06/12 06:48:27;;;;;;;6.22;2.40;;;23.90;60.90;;;;;;7400172;19;20372;-60
2023/06/12 06:50:57;;;;;;;4.45;2.30;;;24.00;61.00;;;;;;7397772;19;19939;-61
2023/06/12 06:53:26;;;;;;;3.90;1.85;;;24.00;60.90;;;;;;7396163;19;19930;-60
2023/06/12 06:55:55;;;;;;;5.70;2.13;;;24.00;60.90;;;;;;7397516;19;19923;-60
2023/06/12 06:58:24;;;;;;;5.68;2.10;;;24.00;60.90;;;;;;7396614;19;19918;-60
2023/06/12 07:00:53;;;;;;;4.85;2.30;;;24.00;60.90;;;;;;7396086;19;19918;-60
2023/06/12 07:03:25;;;;;;;3.53;2.05;;;24.00;60.90;;;;;;7403252;19;19922;-61
2023/06/12 07:05:54;;;;;;;7.70;2.53;;;24.00;60.90;;;;;;7406866;19;20578;-60
2023/06/12 07:08:23;;;;;;;5.10;2.30;;;24.00;60.90;;;;;;7406347;19;20059;-60
2023/06/12 07:10:53;;;;;;;5.15;2.72;;;24.00;60.90;;;;;;7404531;19;19926;-60
2023/06/12 07:13:22;;;;;;;4.38;2.25;;;24.10;61.00;;;;;;7402077;19;20276;-60
2023/06/12 07:15:51;;;;;;;;;;;24.10;60.90;;;;;;7405557;19;20285;-59
2023/06/12 07:18:20;;;;;;;4.50;1.88;;;24.10;60.90;;;;;;7402994;19;20268;-60
2023/06/12 07:20:52;;;;;;;7.20;2.75;;;24.10;60.90;;;;;;7398378;19;19922;-65
2023/06/12 07:23:21;;;;;;;6.38;2.17;;;24.10;61.00;;;;;;7404664;19;19922;-61
2023/06/12 07:25:50;;;;;;;6.60;2.33;;;24.10;61.00;;;;;;7405606;19;19918;-60
2023/06/12 07:28:19;;;;;;;6.57;2.55;;;24.20;61.20;;;;;;7407709;19;19929;-59
2023/06/12 07:30:50;;;;;;;7.07;2.50;;;24.20;61.20;;;;;;7407795;19;19973;-60
2023/06/12 07:33:22;;;;;;;5.80;2.40;;;24.20;61.30;;;;;;7401706;19;20281;-61
2023/06/12 07:35:53;;;;;;;5.95;2.40;;;24.20;61.30;;;;;;7407198;19;19926;-64
2023/06/12 07:38:22;;;;;;;4.47;2.20;;;24.20;61.30;;;;;;7401600;19;20336;-60
2023/06/12 07:40:51;;;;;;;6.65;2.42;;;24.20;61.40;;;;;;7405327;19;19922;-61
2023/06/12 07:43:21;;;;;;;4.60;2.53;;;24.30;61.40;;;;;;7402897;19;19930;-60
2023/06/12 07:45:51;;;;;;;4.95;2.20;;;24.20;61.30;;;;;;7405843;19;20313;-60
2023/06/12 07:48:20;;;;;;;5.05;2.28;;;24.30;61.30;;;;;;7404795;19;19934;-61
2023/06/12 07:50:49;;;;;;;6.05;2.45;;;24.30;61.30;;;;;;7405946;19;19929;-60
2023/06/12 07:53:21;;;;;;;4.97;2.63;;;24.30;61.30;;;;;;7404307;19;19990;-60
2023/06/12 07:55:52;;;;;;;3.90;2.45;;;24.30;61.30;;;;;;7405067;19;19922;-60
2023/06/12 07:58:22;;;;;;;5.03;2.55;;;24.40;61.30;;;;;;7404544;19;19922;-61
2023/06/12 08:00:54;;;;;;;5.28;2.40;;;24.40;61.30;;;;;;7405239;19;19974;-60
2023/06/12 08:03:25;;;;;;;5.60;2.55;;;24.40;61.30;;;;;;7402052;19;19926;-61
2023/06/12 08:05:54;;;;;;;5.85;2.83;;;24.40;61.40;;;;;;7403296;19;19934;-60
2023/06/12 08:08:26;;;;;;;4.05;2.38;;;24.40;61.40;;;;;;7406130;19;19926;-61
2023/06/12 08:10:55;;;;;;;5.38;2.75;;;24.40;61.40;;;;;;7404939;19;19922;-60
2023/06/12 08:13:24;;;;;;;7.07;2.85;;;24.40;61.40;;;;;;7402631;19;19925;-60
2023/06/12 08:15:53;;;;;;;6.45;2.83;;;24.40;61.40;;;;;;7402969;19;19978;-61
2023/06/12 08:18:22;;;;;;;6.60;2.75;;;24.50;61.50;;;;;;7402693;19;19961;-61
2023/06/12 08:20:52;;;;;;;4.82;2.53;;;24.50;61.50;;;;;;7401853;19;20549;-61
2023/06/12 08:23:21;;;;;;;4.88;2.88;;;24.50;61.50;;;;;;7404744;19;19986;-61
2023/06/12 08:25:53;;;;;;;6.32;3.00;;;24.50;61.40;;;;;;7402758;19;20522;-60
2023/06/12 08:28:22;;;;;;;6.38;2.63;;;24.50;61.40;;;;;;7403486;19;19996;-59
2023/06/12 08:30:57;;;;;;;5.75;2.95;;;24.50;61.30;;;;;;7403319;19;19950;-61
2023/06/12 08:33:27;;;;;;;4.65;2.90;;;24.50;61.30;;;;;;7402940;19;19922;-60
2023/06/12 08:35:56;;;;;;;7.38;3.03;;;24.60;62.00;;;;;;7404841;19;19918;-59
2023/06/12 08:38:25;;;;;;;6.85;3.47;;;24.60;61.70;;;;;;7402609;19;19953;-60
2023/06/12 08:41:00;;;;;;;8.35;2.72;;;24.60;61.90;;;;;;7404217;19;19932;-60
2023/06/12 08:43:31;;;;;;;5.50;2.85;;;24.60;62.00;;;;;;7403385;19;19919;-59
2023/06/12 08:46:04;;;;;;;5.82;3.25;;;24.70;62.00;;;;;;7404326;19;19930;-59
2023/06/12 08:48:35;;;;;;;6.65;3.45;;;24.60;62.00;;;;;;7404244;19;19918;-59
2023/06/12 08:51:04;;;;;;;4.75;3.42;;;24.70;62.10;;;;;;7403376;19;19926;-60
2023/06/12 08:53:34;;;;;;;4.30;3.17;;;24.70;62.20;;;;;;7402152;19;19930;-59
2023/06/12 08:56:06;;;;;;;6.97;3.03;;;24.70;62.30;;;;;;7401787;19;20337;-61
2023/06/12 08:58:35;;;;;;;5.88;3.25;;;24.70;62.30;;;;;;7402657;19;19923;-59
2023/06/12 09:01:06;;;;;;;5.82;2.78;;;24.70;62.40;;;;;;7402390;19;19933;-58
2023/06/12 09:03:36;;;;;;;7.13;3.10;;;24.80;62.50;;;;;;7403283;19;19946;-58
2023/06/12 09:06:09;;;;;;;6.05;3.42;;;24.80;62.50;;;;;;7403149;19;20075;-59
2023/06/12 09:08:39;;;;;;;6.28;3.58;;;24.80;62.50;;;;;;7402985;19;19922;-59
2023/06/12 09:11:10;;;;;;;5.22;3.75;;;24.80;62.70;;;;;;7403943;19;19956;-60
2023/06/12 09:13:43;;;;;;;7.75;3.10;;;24.80;62.60;;;;;;7401127;19;20005;-60
2023/06/12 09:16:17;;;;;;;4.80;3.40;;;24.90;62.70;;;;;;7403678;19;19989;-60
2023/06/12 09:18:53;;;;;;;6.20;3.55;;;24.90;62.70;;;;;;7402203;19;19999;-60
2023/06/12 09:21:25;;;;;;;6.30;2.95;;;24.90;62.80;;;;;;7401609;19;20260;-59
2023/06/12 09:23:55;;;;;;;4.85;2.90;;;24.90;62.90;;;;;;7401024;19;19956;-60
2023/06/12 09:26:26;;;;;;;5.70;2.97;;;24.90;62.90;;;;;;7400637;19;19926;-60
2023/06/12 09:28:56;;;;;;;3.78;2.75;;;25.00;63.00;;;;;;7401433;19;19926;-60
2023/06/12 09:31:25;;;;;;;5.38;3.13;;;25.00;63.10;;;;;;7401987;19;19914;-60
2023/06/12 09:33:55;;;;;;;;;;;25.00;63.00;;;;;;7402328;19;19979;-60
2023/06/12 09:36:31;;;;;;;6.95;3.53;;;25.00;62.90;;;;;;7401398;19;19925;-60
2023/06/12 09:39:01;;;;;;;4.68;3.30;;;25.00;63.10;;;;;;7403773;19;19922;-60
2023/06/12 09:41:32;;;;;;;5.45;3.63;;;25.00;62.90;;;;;;7402646;19;19985;-59
2023/06/12 09:44:05;;;;;;;7.28;3.20;;;25.10;63.00;;;;;;7400896;19;19927;-59
2023/06/12 09:46:37;;;;;;;5.93;3.65;;;25.10;62.90;;;;;;7401556;19;19935;-60
2023/06/12 09:49:07;;;;;;;5.85;3.58;;;25.10;62.90;;;;;;7399907;19;20400;-60
2023/06/12 09:51:36;;;;;;;5.30;3.22;;;25.10;62.80;;;;;;7400220;19;19981;-59
2023/06/12 09:54:08;;;;;;;5.45;3.45;;;25.10;62.80;;;;;;7400293;19;19922;-59
2023/06/12 09:56:41;;;;;;;4.95;3.72;;;25.10;62.80;;;;;;7401349;19;21550;-59
2023/06/12 09:59:16;;;;;;;5.82;3.08;;;25.20;62.80;;;;;;7402363;19;20336;-60
2023/06/12 10:01:49;;;;;;;5.07;3.22;;;25.20;62.90;;;;;;7401784;19;20007;-60
2023/06/12 10:04:24;;;;;;;4.80;3.00;;;25.20;62.90;;;;;;7400833;19;19959;-58
2023/06/12 10:06:55;;;;;;;6.63;4.05;;;25.30;62.80;;;;;;7397992;19;19973;-60
2023/06/12 10:09:24;;;;;;;5.78;2.78;;;25.30;62.80;;;;;;7402126;19;19950;-59
2023/06/12 10:11:59;;;;;;;4.43;3.10;;;25.30;62.70;;;;;;7400393;19;20476;-59
2023/06/12 10:14:29;;;;;;;4.28;3.50;;;25.30;63.10;;;;;;7399662;19;19919;-60
2023/06/12 10:17:00;;;;;;;6.15;3.80;;;25.40;63.30;;;;;;7397989;19;19986;-61
2023/06/12 10:19:30;;;;;;;4.57;3.60;;;25.40;63.40;;;;;;7397902;19;20275;-60
2023/06/12 10:22:01;;;;;;;6.00;3.25;;;25.50;63.30;;;;;;7399592;19;19939;-60
2023/06/12 10:24:30;;;;;;;6.93;3.13;;;25.50;63.20;;;;;;7400583;19;19927;-60
2023/06/12 10:27:03;;;;;;;4.85;3.67;;;25.50;63.10;;;;;;7397623;19;19926;-61
2023/06/12 10:29:36;;;;;;;4.88;3.33;;;25.50;63.30;;;;;;7399191;19;19948;-60
2023/06/12 10:32:07;;;;;;;6.10;3.75;;;25.60;63.20;;;;;;7304038;19;19929;-61
2023/06/12 10:34:37;;;;;;;4.18;3.08;;;25.60;64.80;;;;;;7397110;19;20344;-60
2023/06/12 10:37:25;;;;;;;6.05;3.72;;;25.60;65.40;;;;;;7405459;19;20012;-60
2023/06/12 10:40:12;;;;;;;6.28;2.95;;;25.70;64.50;;;;;;7407497;19;19933;-62
2023/06/12 10:42:49;;;;;;;5.57;3.47;;;25.70;64.40;;;;;;7404003;19;19960;-61
2023/06/12 10:45:21;;;;;;;5.38;3.35;;;25.80;64.30;;;;;;7408121;19;19926;-59
2023/06/12 10:48:17;;;;;;;6.25;3.80;;;25.80;64.10;;;;;;7405412;19;20572;-60
2023/06/12 10:50:47;;;;;;;8.60;3.30;;;25.80;63.90;;;;;;7404917;19;19925;-61
2023/06/12 10:53:17;;;;;;;6.75;3.83;;;25.90;63.90;;;;;;7404019;19;19952;-60
2023/06/12 10:55:47;;;;;;;6.20;3.40;;;25.90;63.90;;;;;;7407066;19;19914;-60
2023/06/12 10:58:20;;;;;;;;;;;25.90;63.70;;;;;;7407714;19;19973;-60
2023/06/12 11:00:51;;;;;;;6.18;4.20;;;26.00;63.70;;;;;;7393699;19;19918;-60
2023/06/12 11:03:25;;;;;;;4.93;3.15;;;26.00;63.70;;;;;;7405720;19;20261;-60
2023/06/12 11:05:58;;;;;;;5.68;3.63;;;26.00;63.60;;;;;;7407267;19;20323;-60
2023/06/12 11:08:30;;;;;;;6.53;3.35;;;26.00;63.40;;;;;;7407433;19;19994;-60
2023/06/12 11:10:59;;;;;;;6.45;3.50;;;26.00;63.30;;;;;;7402788;19;20340;-60
2023/06/12 11:13:30;;;;;;;7.28;3.67;;;26.10;63.10;;;;;;7402958;19;19926;-61
2023/06/12 11:16:00;;;;;;;6.38;4.10;;;26.10;63.00;;;;;;7406882;19;20497;-61
2023/06/12 11:18:29;;;;;;;4.95;3.92;;;26.10;62.80;;;;;;7403474;19;19930;-60
2023/06/12 11:20:58;;;;;;;;;;;26.10;62.70;;;;;;7405208;19;19922;-60
2023/06/12 11:23:28;;;;;;;6.43;3.63;;;26.20;62.60;;;;;;7405086;19;20501;-60
2023/06/12 11:26:20;;;;;;;4.97;3.83;;;26.20;62.40;;;;;;7401320;19;19966;-59
2023/06/12 11:28:52;;;;;;;5.13;3.97;;;26.30;62.40;;;;;;7399722;19;20197;-60
2023/06/12 11:31:22;;;;;;;5.45;3.97;;;26.30;62.30;;;;;;7403593;19;19926;-60
2023/06/12 11:33:51;;;;;;;5.45;3.75;;;26.30;62.20;;;;;;7398402;19;19930;-60
2023/06/12 11:36:21;;;;;;;5.80;4.13;;;26.40;62.00;;;;;;7403250;19;19927;-61
2023/06/12 11:38:50;;;;;;;6.10;4.05;;;26.40;61.70;;;;;;7401847;19;20266;-60
2023/06/12 11:41:20;;;;;;;8.95;4.03;;;26.40;61.70;;;;;;7400050;19;19939;-60
2023/06/12 11:43:52;;;;;;;;;;;26.50;61.60;;;;;;7404522;19;19947;-61
2023/06/12 11:46:23;;;;;;;4.93;3.85;;;26.50;61.30;;;;;;7403498;19;20379;-60
2023/06/12 11:49:01;;;;;;;6.20;3.53;;;26.50;61.20;;;;;;7398929;19;19926;-60
2023/06/12 11:51:30;;;;;;;5.53;4.00;;;26.50;61.10;;;;;;7403238;19;19932;-61
2023/06/12 11:54:01;;;;;;;4.90;3.83;;;26.60;61.10;;;;;;7402379;19;19926;-60
2023/06/12 11:56:31;;;;;;;6.00;4.20;;;26.60;61.20;;;;;;7404949;19;19918;-59
2023/06/12 11:59:03;;;;;;;6.78;4.38;;;26.60;61.10;;;;;;7402526;19;20012;-60
2023/06/12 12:01:40;;;;;;;7.45;4.40;;;26.70;60.70;;;;;;7403341;19;19921;-60
2023/06/12 12:04:10;;;;;;;7.53;4.63;;;26.70;60.40;;;;;;7401395;19;20007;-60
2023/06/12 12:06:49;;;;;;;5.28;4.68;;;26.70;60.20;;;;;;7400137;19;19919;-62
2023/06/12 12:09:26;;;;;;;7.15;4.07;;;26.80;60.00;;;;;;7402549;19;19921;-60
2023/06/12 12:11:56;;;;;;;8.52;4.63;;;26.80;60.10;;;;;;7402467;19;19922;-61
2023/06/12 12:14:28;;;;;;;;;;;26.90;59.90;;;;;;7401506;19;20337;-60
2023/06/12 12:17:09;;;;;;;5.40;4.18;;;26.90;59.80;;;;;;7403446;19;19919;-60
2023/06/12 12:19:38;;;;;;;6.15;4.38;;;26.90;59.90;;;;;;7403158;19;19919;-61
2023/06/12 12:22:07;;;;;;;7.28;4.03;;;26.90;59.50;;;;;;7404963;19;19914;-61
2023/06/12 12:24:38;;;;;;;5.97;4.38;;;27.00;59.50;;;;;;7404180;19;19978;-60
2023/06/12 12:27:14;;;;;;;5.85;4.07;;;27.00;59.40;;;;;;7404095;19;19923;-60
2023/06/12 12:29:46;;;;;;;6.60;5.15;;;27.00;59.20;;;;;;7401061;19;19918;-61
2023/06/12 12:32:15;;;;;;;7.28;4.93;;;27.10;59.10;;;;;;7405306;19;20660;-60
2023/06/12 12:34:44;;;;;;;6.63;4.35;;;27.10;58.90;;;;;;7403268;19;19919;-61
2023/06/12 12:37:13;;;;;;;6.68;4.30;;;27.10;58.80;;;;;;7402142;19;20369;-60
2023/06/12 12:39:42;;;;;;;7.97;5.68;;;27.20;58.90;;;;;;7405623;19;19999;-60
2023/06/12 12:42:11;;;;;;;6.53;4.18;;;27.20;58.50;;;;;;7403708;19;19929;-60
2023/06/12 12:44:40;;;;;;;7.32;4.72;;;27.30;58.60;;;;;;7403766;19;19927;-60
2023/06/12 12:47:13;;;;;;;5.80;4.40;;;27.30;58.80;;;;;;7404096;19;19919;-61
2023/06/12 12:49:42;;;;;;;5.88;4.30;;;27.30;59.20;;;;;;7402842;19;19919;-58
2023/06/12 12:52:11;;;;;;;6.53;4.85;;;27.40;59.50;;;;;;7402086;19;19935;-57
2023/06/12 12:54:40;;;;;;;6.28;4.22;;;27.40;59.50;;;;;;7404026;19;19926;-57
2023/06/12 12:57:09;;;;;;;5.95;4.38;;;27.40;59.50;;;;;;7397619;19;20336;-58
2023/06/12 12:59:39;;;;;;;6.05;4.22;;;27.50;59.70;;;;;;7403194;19;19923;-58
2023/06/12 13:02:09;;;;;;;8.40;4.38;;;27.50;59.70;;;;;;7404193;19;19989;-57
2023/06/12 13:04:40;;;;;;;6.30;4.28;;;27.50;59.80;;;;;;7402453;19;19933;-58
2023/06/12 13:07:10;;;;;;;5.78;4.32;;;27.60;59.90;;;;;;7401366;19;19954;-58
2023/06/12 13:09:39;;;;;;;;;;;27.60;59.90;;;;;;7405953;19;20311;-58